sensor_id;sensor_type;location;lat;lon;timestamp;P1;durP1;ratioP1;P2;durP2;ratioP2
39276;SDS011;63149;48.086;-1.606;2023-03-23T06:02:10;22.65;;;3.83;;
39276;SDS011;63149;48.086;-1.606;2023-03-23T06:04:39;23.30;;;4.25;;
39276;SDS011;63149;48.086;-1.606;2023-03-23T06:07:06;26.67;;;5.10;;
39276;SDS011;63149;48.086;-1.606;2023-03-23T06:09:33;29.33;;;4.75;;
39276;SDS011;63149;48.086;-1.606;2023-03-23T06:12:00;23.65;;;3.78;;
39276;SDS011;63149;48.086;-1.606;2023-03-23T06:14:27;36.42;;;4.45;;
39276;SDS011;63149;48.086;-1.606;2023-03-23T06:16:54;26.10;;;3.95;;
39276;SDS011;63149;48.086;-1.606;2023-03-23T06:19:22;40.30;;;4.60;;
39276;SDS011;63149;48.086;-1.606;2023-03-23T06:21:51;31.40;;;4.45;;
39276;SDS011;63149;48.086;-1.606;2023-03-23T06:24:19;27.60;;;4.55;;
39276;SDS011;63149;48.086;-1.606;2023-03-23T06:26:46;33.47;;;5.07;;
39276;SDS011;63149;48.086;-1.606;2023-03-23T06:29:14;39.97;;;5.55;;
39276;SDS011;63149;48.086;-1.606;2023-03-23T06:31:42;39.53;;;5.07;;
39276;SDS011;63149;48.086;-1.606;2023-03-23T06:34:11;21.30;;;4.53;;
39276;SDS011;63149;48.086;-1.606;2023-03-23T06:36:39;38.72;;;6.00;;
39276;SDS011;63149;48.086;-1.606;2023-03-23T06:39:08;27.05;;;5.10;;
39276;SDS011;63149;48.086;-1.606;2023-03-23T06:41:35;31.15;;;5.13;;
39276;SDS011;63149;48.086;-1.606;2023-03-23T06:44:02;29.77;;;4.57;;
39276;SDS011;63149;48.086;-1.606;2023-03-23T06:46:29;35.42;;;6.53;;
39276;SDS011;63149;48.086;-1.606;2023-03-23T06:48:56;32.95;;;5.80;;
39276;SDS011;63149;48.086;-1.606;2023-03-23T06:51:23;38.72;;;5.30;;
39276;SDS011;63149;48.086;-1.606;2023-03-23T06:53:52;37.35;;;5.13;;
39276;SDS011;63149;48.086;-1.606;2023-03-23T06:56:20;42.75;;;5.70;;
39276;SDS011;63149;48.086;-1.606;2023-03-23T06:58:46;30.95;;;4.88;;
39276;SDS011;63149;48.086;-1.606;2023-03-23T07:01:13;35.60;;;4.82;;
39276;SDS011;63149;48.086;-1.606;2023-03-23T07:03:41;33.38;;;5.93;;
39276;SDS011;63149;48.086;-1.606;2023-03-23T07:06:08;30.98;;;4.65;;
39276;SDS011;63149;48.086;-1.606;2023-03-23T07:08:35;29.63;;;4.72;;
39276;SDS011;63149;48.086;-1.606;2023-03-23T07:11:04;38.15;;;5.63;;
39276;SDS011;63149;48.086;-1.606;2023-03-23T07:13:31;28.38;;;5.78;;
39276;SDS011;63149;48.086;-1.606;2023-03-23T07:15:58;36.67;;;6.10;;
39276;SDS011;63149;48.086;-1.606;2023-03-23T07:18:25;42.10;;;5.25;;
39276;SDS011;63149;48.086;-1.606;2023-03-23T07:20:53;31.92;;;4.72;;
39276;SDS011;63149;48.086;-1.606;2023-03-23T07:23:20;53.75;;;7.85;;
39276;SDS011;63149;48.086;-1.606;2023-03-23T07:25:47;41.50;;;4.72;;
39276;SDS011;63149;48.086;-1.606;2023-03-23T07:28:15;40.55;;;5.50;;
39276;SDS011;63149;48.086;-1.606;2023-03-23T07:30:43;40.13;;;5.70;;
39276;SDS011;63149;48.086;-1.606;2023-03-23T07:33:10;36.83;;;5.30;;
39276;SDS011;63149;48.086;-1.606;2023-03-23T07:35:38;31.85;;;4.43;;
39276;SDS011;63149;48.086;-1.606;2023-03-23T07:38:05;30.73;;;5.75;;
39276;SDS011;63149;48.086;-1.606;2023-03-23T07:40:33;38.42;;;5.20;;
39276;SDS011;63149;48.086;-1.606;2023-03-23T07:43:01;40.97;;;6.13;;
39276;SDS011;63149;48.086;-1.606;2023-03-23T07:45:31;41.20;;;5.15;;
39276;SDS011;63149;48.086;-1.606;2023-03-23T07:47:58;29.20;;;4.25;;
39276;SDS011;63149;48.086;-1.606;2023-03-23T07:50:26;36.67;;;6.22;;
39276;SDS011;63149;48.086;-1.606;2023-03-23T07:52:54;43.67;;;6.07;;
39276;SDS011;63149;48.086;-1.606;2023-03-23T07:55:22;38.30;;;7.10;;
39276;SDS011;63149;48.086;-1.606;2023-03-23T07:57:50;36.58;;;5.35;;
39276;SDS011;63149;48.086;-1.606;2023-03-23T08:00:18;34.65;;;4.90;;
39276;SDS011;63149;48.086;-1.606;2023-03-23T08:02:50;39.70;;;5.22;;
39276;SDS011;63149;48.086;-1.606;2023-03-23T08:05:18;45.90;;;6.43;;
39276;SDS011;63149;48.086;-1.606;2023-03-23T08:07:47;32.30;;;5.45;;
39276;SDS011;63149;48.086;-1.606;2023-03-23T08:10:14;50.25;;;6.25;;
39276;SDS011;63149;48.086;-1.606;2023-03-23T08:12:43;33.78;;;5.53;;
39276;SDS011;63149;48.086;-1.606;2023-03-23T08:15:13;32.85;;;7.25;;
39276;SDS011;63149;48.086;-1.606;2023-03-23T08:17:41;29.90;;;5.10;;
39276;SDS011;63149;48.086;-1.606;2023-03-23T08:20:10;38.00;;;6.00;;
39276;SDS011;63149;48.086;-1.606;2023-03-23T08:22:38;32.30;;;6.50;;
39276;SDS011;63149;48.086;-1.606;2023-03-23T08:25:09;40.60;;;4.93;;
39276;SDS011;63149;48.086;-1.606;2023-03-23T08:27:37;42.33;;;6.15;;
39276;SDS011;63149;48.086;-1.606;2023-03-23T08:30:09;39.70;;;7.07;;
39276;SDS011;63149;48.086;-1.606;2023-03-23T08:32:37;32.30;;;6.25;;
39276;SDS011;63149;48.086;-1.606;2023-03-23T08:35:05;37.30;;;5.80;;
39276;SDS011;63149;48.086;-1.606;2023-03-23T08:37:35;35.75;;;5.50;;
39276;SDS011;63149;48.086;-1.606;2023-03-23T08:40:02;30.85;;;5.65;;
39276;SDS011;63149;48.086;-1.606;2023-03-23T08:42:34;42.92;;;6.85;;
39276;SDS011;63149;48.086;-1.606;2023-03-23T08:45:01;26.55;;;5.00;;
39276;SDS011;63149;48.086;-1.606;2023-03-23T08:47:28;39.80;;;7.22;;
39276;SDS011;63149;48.086;-1.606;2023-03-23T08:49:56;33.28;;;5.25;;
39276;SDS011;63149;48.086;-1.606;2023-03-23T08:52:23;35.78;;;5.78;;
39276;SDS011;63149;48.086;-1.606;2023-03-23T08:54:51;30.42;;;6.40;;
39276;SDS011;63149;48.086;-1.606;2023-03-23T08:57:18;32.00;;;5.93;;
39276;SDS011;63149;48.086;-1.606;2023-03-23T08:59:45;39.55;;;6.03;;
39276;SDS011;63149;48.086;-1.606;2023-03-23T09:02:12;34.25;;;4.85;;
39276;SDS011;63149;48.086;-1.606;2023-03-23T09:04:40;30.58;;;5.18;;
39276;SDS011;63149;48.086;-1.606;2023-03-23T09:07:08;38.45;;;6.57;;
39276;SDS011;63149;48.086;-1.606;2023-03-23T09:09:36;31.58;;;4.50;;
39276;SDS011;63149;48.086;-1.606;2023-03-23T09:12:05;34.10;;;5.97;;
39276;SDS011;63149;48.086;-1.606;2023-03-23T09:14:33;36.88;;;5.25;;
39276;SDS011;63149;48.086;-1.606;2023-03-23T09:17:01;36.58;;;6.13;;
39276;SDS011;63149;48.086;-1.606;2023-03-23T09:19:29;36.47;;;5.40;;
39276;SDS011;63149;48.086;-1.606;2023-03-23T09:21:56;30.75;;;4.85;;
39276;SDS011;63149;48.086;-1.606;2023-03-23T09:24:23;34.38;;;4.88;;
39276;SDS011;63149;48.086;-1.606;2023-03-23T09:26:50;38.20;;;4.97;;
39276;SDS011;63149;48.086;-1.606;2023-03-23T09:29:18;27.83;;;5.07;;
39276;SDS011;63149;48.086;-1.606;2023-03-23T09:31:46;28.60;;;4.35;;
39276;SDS011;63149;48.086;-1.606;2023-03-23T09:34:13;24.77;;;5.20;;
39276;SDS011;63149;48.086;-1.606;2023-03-23T09:36:41;28.15;;;4.35;;
39276;SDS011;63149;48.086;-1.606;2023-03-23T09:39:09;23.35;;;5.82;;
39276;SDS011;63149;48.086;-1.606;2023-03-23T09:44:28;30.13;;;5.22;;
39276;SDS011;63149;48.086;-1.606;2023-03-23T09:47:10;20.92;;;4.03;;
39276;SDS011;63149;48.086;-1.606;2023-03-23T09:49:45;25.05;;;4.95;;
39276;SDS011;63149;48.086;-1.606;2023-03-23T09:52:17;20.48;;;3.03;;
39276;SDS011;63149;48.086;-1.606;2023-03-23T09:54:45;20.98;;;4.05;;
39276;SDS011;63149;48.086;-1.606;2023-03-23T09:57:15;30.25;;;5.13;;
39276;SDS011;63149;48.086;-1.606;2023-03-23T09:59:49;26.95;;;4.20;;
39276;SDS011;63149;48.086;-1.606;2023-03-23T10:02:21;24.25;;;4.80;;
39276;SDS011;63149;48.086;-1.606;2023-03-23T10:04:54;24.77;;;3.78;;
39276;SDS011;63149;48.086;-1.606;2023-03-23T10:07:23;28.00;;;4.28;;
39276;SDS011;63149;48.086;-1.606;2023-03-23T10:09:53;27.02;;;4.05;;
39276;SDS011;63149;48.086;-1.606;2023-03-23T10:12:25;19.27;;;3.72;;
39276;SDS011;63149;48.086;-1.606;2023-03-23T10:15:03;26.20;;;3.92;;
39276;SDS011;63149;48.086;-1.606;2023-03-23T10:17:40;27.13;;;4.03;;
39276;SDS011;63149;48.086;-1.606;2023-03-23T10:20:21;20.63;;;4.75;;
39276;SDS011;63149;48.086;-1.606;2023-03-23T10:22:58;30.88;;;3.97;;
39276;SDS011;63149;48.086;-1.606;2023-03-23T10:25:32;26.55;;;3.97;;
39276;SDS011;63149;48.086;-1.606;2023-03-23T10:28:06;24.83;;;3.95;;
39276;SDS011;63149;48.086;-1.606;2023-03-23T10:30:41;21.77;;;4.22;;
39276;SDS011;63149;48.086;-1.606;2023-03-23T10:33:12;27.15;;;4.25;;
39276;SDS011;63149;48.086;-1.606;2023-03-23T10:35:44;30.13;;;3.88;;
39276;SDS011;63149;48.086;-1.606;2023-03-23T10:38:19;21.60;;;4.30;;
39276;SDS011;63149;48.086;-1.606;2023-03-23T10:40:52;20.60;;;3.65;;
39276;SDS011;63149;48.086;-1.606;2023-03-23T10:43:23;19.80;;;3.17;;
39276;SDS011;63149;48.086;-1.606;2023-03-23T10:45:55;24.15;;;5.07;;
39276;SDS011;63149;48.086;-1.606;2023-03-23T10:48:27;23.65;;;4.60;;
39276;SDS011;63149;48.086;-1.606;2023-03-23T10:51:00;29.98;;;5.15;;
39276;SDS011;63149;48.086;-1.606;2023-03-23T10:53:32;20.77;;;4.57;;
39276;SDS011;63149;48.086;-1.606;2023-03-23T10:56:01;29.88;;;4.40;;
39276;SDS011;63149;48.086;-1.606;2023-03-23T10:58:30;30.23;;;4.55;;
39276;SDS011;63149;48.086;-1.606;2023-03-23T11:01:00;21.67;;;3.70;;
39276;SDS011;63149;48.086;-1.606;2023-03-23T11:03:35;28.83;;;4.75;;
39276;SDS011;63149;48.086;-1.606;2023-03-23T11:06:07;19.08;;;4.22;;
39276;SDS011;63149;48.086;-1.606;2023-03-23T11:08:37;28.40;;;3.83;;
39276;SDS011;63149;48.086;-1.606;2023-03-23T11:11:15;18.40;;;3.63;;
39276;SDS011;63149;48.086;-1.606;2023-03-23T11:13:45;23.85;;;3.78;;
39276;SDS011;63149;48.086;-1.606;2023-03-23T11:16:23;27.55;;;3.70;;
39276;SDS011;63149;48.086;-1.606;2023-03-23T11:18:51;24.60;;;4.40;;
39276;SDS011;63149;48.086;-1.606;2023-03-23T11:21:19;26.52;;;4.38;;
39276;SDS011;63149;48.086;-1.606;2023-03-23T11:23:48;30.27;;;4.88;;
39276;SDS011;63149;48.086;-1.606;2023-03-23T11:26:18;23.23;;;3.95;;
39276;SDS011;63149;48.086;-1.606;2023-03-23T11:28:48;21.93;;;4.87;;
39276;SDS011;63149;48.086;-1.606;2023-03-23T11:31:21;47.38;;;6.82;;
39276;SDS011;63149;48.086;-1.606;2023-03-23T11:36:20;29.00;;;4.90;;
39276;SDS011;63149;48.086;-1.606;2023-03-23T11:38:54;40.30;;;4.50;;
39276;SDS011;63149;48.086;-1.606;2023-03-23T11:41:22;31.13;;;5.70;;
39276;SDS011;63149;48.086;-1.606;2023-03-23T11:43:51;36.70;;;5.97;;
39276;SDS011;63149;48.086;-1.606;2023-03-23T11:46:22;32.35;;;5.43;;
39276;SDS011;63149;48.086;-1.606;2023-03-23T11:48:59;26.48;;;5.15;;
39276;SDS011;63149;48.086;-1.606;2023-03-23T11:51:30;39.50;;;7.05;;
39276;SDS011;63149;48.086;-1.606;2023-03-23T11:54:06;28.58;;;6.50;;
39276;SDS011;63149;48.086;-1.606;2023-03-23T11:56:38;28.35;;;4.97;;
39276;SDS011;63149;48.086;-1.606;2023-03-23T11:59:09;28.58;;;6.50;;
39276;SDS011;63149;48.086;-1.606;2023-03-23T12:01:46;33.83;;;6.10;;
39276;SDS011;63149;48.086;-1.606;2023-03-23T12:04:24;35.67;;;5.78;;
39276;SDS011;63149;48.086;-1.606;2023-03-23T12:07:13;38.67;;;5.18;;
39276;SDS011;63149;48.086;-1.606;2023-03-23T12:09:49;35.65;;;6.03;;
39276;SDS011;63149;48.086;-1.606;2023-03-23T12:12:25;31.83;;;5.00;;
39276;SDS011;63149;48.086;-1.606;2023-03-23T12:15:04;31.48;;;4.63;;
39276;SDS011;63149;48.086;-1.606;2023-03-23T12:17:40;30.17;;;6.22;;
39276;SDS011;63149;48.086;-1.606;2023-03-23T12:20:17;32.08;;;5.22;;
39276;SDS011;63149;48.086;-1.606;2023-03-23T12:23:00;24.38;;;4.43;;
39276;SDS011;63149;48.086;-1.606;2023-03-23T12:25:43;33.95;;;5.25;;
39276;SDS011;63149;48.086;-1.606;2023-03-23T12:28:28;32.25;;;5.53;;
39276;SDS011;63149;48.086;-1.606;2023-03-23T12:31:06;31.67;;;5.93;;
39276;SDS011;63149;48.086;-1.606;2023-03-23T12:33:44;28.65;;;4.38;;
39276;SDS011;63149;48.086;-1.606;2023-03-23T12:36:22;33.88;;;5.72;;
39276;SDS011;63149;48.086;-1.606;2023-03-23T12:39:10;21.48;;;4.70;;
39276;SDS011;63149;48.086;-1.606;2023-03-23T12:42:10;23.08;;;5.10;;
39276;SDS011;63149;48.086;-1.606;2023-03-23T12:44:45;27.80;;;5.07;;
39276;SDS011;63149;48.086;-1.606;2023-03-23T12:47:21;26.93;;;4.70;;
39276;SDS011;63149;48.086;-1.606;2023-03-23T12:49:58;25.92;;;5.07;;
39276;SDS011;63149;48.086;-1.606;2023-03-23T12:52:30;25.38;;;4.18;;
39276;SDS011;63149;48.086;-1.606;2023-03-23T12:55:03;32.58;;;5.13;;
39276;SDS011;63149;48.086;-1.606;2023-03-23T13:00:04;33.20;;;5.78;;
39276;SDS011;63149;48.086;-1.606;2023-03-23T13:02:39;28.23;;;4.93;;
39276;SDS011;63149;48.086;-1.606;2023-03-23T13:05:11;30.27;;;4.30;;
39276;SDS011;63149;48.086;-1.606;2023-03-23T13:07:42;37.70;;;6.53;;
39276;SDS011;63149;48.086;-1.606;2023-03-23T13:10:16;23.50;;;4.65;;
39276;SDS011;63149;48.086;-1.606;2023-03-23T13:12:46;28.77;;;5.70;;
39276;SDS011;63149;48.086;-1.606;2023-03-23T13:15:18;19.80;;;5.55;;
39276;SDS011;63149;48.086;-1.606;2023-03-23T13:17:55;32.72;;;4.70;;
39276;SDS011;63149;48.086;-1.606;2023-03-23T13:23:22;24.65;;;4.90;;
39276;SDS011;63149;48.086;-1.606;2023-03-23T13:25:53;23.63;;;5.20;;
39276;SDS011;63149;48.086;-1.606;2023-03-23T13:28:23;27.63;;;5.00;;
39276;SDS011;63149;48.086;-1.606;2023-03-23T13:30:57;26.63;;;4.35;;
39276;SDS011;63149;48.086;-1.606;2023-03-23T13:33:28;21.60;;;4.18;;
39276;SDS011;63149;48.086;-1.606;2023-03-23T13:36:02;26.60;;;4.85;;
39276;SDS011;63149;48.086;-1.606;2023-03-23T13:38:34;30.95;;;5.63;;
39276;SDS011;63149;48.086;-1.606;2023-03-23T13:41:06;21.00;;;4.00;;
39276;SDS011;63149;48.086;-1.606;2023-03-23T13:43:36;20.67;;;4.40;;
39276;SDS011;63149;48.086;-1.606;2023-03-23T13:46:08;20.08;;;4.03;;
39276;SDS011;63149;48.086;-1.606;2023-03-23T13:48:44;21.90;;;4.07;;
39276;SDS011;63149;48.086;-1.606;2023-03-23T13:51:24;20.05;;;4.32;;
39276;SDS011;63149;48.086;-1.606;2023-03-23T13:56:47;21.70;;;4.47;;
39276;SDS011;63149;48.086;-1.606;2023-03-23T13:59:30;25.67;;;4.72;;
39276;SDS011;63149;48.086;-1.606;2023-03-23T14:05:08;26.73;;;4.82;;
39276;SDS011;63149;48.086;-1.606;2023-03-23T14:07:55;22.70;;;3.75;;
39276;SDS011;63149;48.086;-1.606;2023-03-23T14:10:24;26.33;;;5.20;;
39276;SDS011;63149;48.086;-1.606;2023-03-23T14:12:57;24.23;;;4.65;;
39276;SDS011;63149;48.086;-1.606;2023-03-23T14:15:28;17.98;;;4.97;;
39276;SDS011;63149;48.086;-1.606;2023-03-23T14:17:56;19.08;;;4.65;;
39276;SDS011;63149;48.086;-1.606;2023-03-23T14:20:25;23.52;;;3.80;;
39276;SDS011;63149;48.086;-1.606;2023-03-23T14:22:59;19.38;;;3.88;;
39276;SDS011;63149;48.086;-1.606;2023-03-23T14:25:27;21.75;;;3.53;;
39276;SDS011;63149;48.086;-1.606;2023-03-23T14:27:57;17.90;;;3.72;;
39276;SDS011;63149;48.086;-1.606;2023-03-23T14:30:25;12.70;;;3.97;;
39276;SDS011;63149;48.086;-1.606;2023-03-23T14:33:03;18.85;;;4.10;;
39276;SDS011;63149;48.086;-1.606;2023-03-23T14:35:34;20.35;;;3.63;;
39276;SDS011;63149;48.086;-1.606;2023-03-23T14:38:03;14.93;;;3.95;;
39276;SDS011;63149;48.086;-1.606;2023-03-23T14:40:33;14.63;;;3.30;;
39276;SDS011;63149;48.086;-1.606;2023-03-23T14:43:00;22.55;;;3.47;;
39276;SDS011;63149;48.086;-1.606;2023-03-23T14:45:27;16.98;;;2.90;;
39276;SDS011;63149;48.086;-1.606;2023-03-23T14:47:56;18.73;;;3.33;;
39276;SDS011;63149;48.086;-1.606;2023-03-23T14:50:27;16.52;;;3.10;;
39276;SDS011;63149;48.086;-1.606;2023-03-23T14:52:59;12.65;;;3.38;;
39276;SDS011;63149;48.086;-1.606;2023-03-23T14:55:30;12.32;;;3.03;;
39276;SDS011;63149;48.086;-1.606;2023-03-23T14:58:05;17.92;;;3.28;;
39276;SDS011;63149;48.086;-1.606;2023-03-23T15:00:36;16.85;;;3.35;;
39276;SDS011;63149;48.086;-1.606;2023-03-23T15:03:11;14.80;;;3.28;;
39276;SDS011;63149;48.086;-1.606;2023-03-23T15:05:42;14.73;;;2.88;;
39276;SDS011;63149;48.086;-1.606;2023-03-23T15:08:12;15.73;;;3.28;;
39276;SDS011;63149;48.086;-1.606;2023-03-23T15:10:43;13.82;;;2.88;;
39276;SDS011;63149;48.086;-1.606;2023-03-23T15:13:21;14.63;;;2.65;;
39276;SDS011;63149;48.086;-1.606;2023-03-23T15:15:48;15.27;;;3.22;;
39276;SDS011;63149;48.086;-1.606;2023-03-23T15:21:06;15.20;;;2.47;;
39276;SDS011;63149;48.086;-1.606;2023-03-23T15:23:40;13.70;;;3.42;;
39276;SDS011;63149;48.086;-1.606;2023-03-23T15:26:19;9.23;;;2.40;;
39276;SDS011;63149;48.086;-1.606;2023-03-23T15:31:43;17.42;;;3.65;;
39276;SDS011;63149;48.086;-1.606;2023-03-23T15:34:17;11.55;;;3.00;;
39276;SDS011;63149;48.086;-1.606;2023-03-23T15:36:51;11.10;;;2.35;;
39276;SDS011;63149;48.086;-1.606;2023-03-23T15:39:21;12.27;;;2.30;;
39276;SDS011;63149;48.086;-1.606;2023-03-23T15:41:50;9.80;;;3.15;;
39276;SDS011;63149;48.086;-1.606;2023-03-23T15:44:20;8.15;;;2.28;;
39276;SDS011;63149;48.086;-1.606;2023-03-23T15:46:50;7.40;;;2.33;;
39276;SDS011;63149;48.086;-1.606;2023-03-23T15:49:24;6.63;;;2.13;;
39276;SDS011;63149;48.086;-1.606;2023-03-23T15:51:51;7.32;;;1.65;;
39276;SDS011;63149;48.086;-1.606;2023-03-23T15:54:18;8.43;;;2.00;;
39276;SDS011;63149;48.086;-1.606;2023-03-23T15:56:45;7.18;;;2.25;;
39276;SDS011;63149;48.086;-1.606;2023-03-23T15:59:13;3.42;;;1.90;;
39276;SDS011;63149;48.086;-1.606;2023-03-23T16:01:41;6.40;;;1.75;;
39276;SDS011;63149;48.086;-1.606;2023-03-23T16:04:09;8.02;;;1.70;;
39276;SDS011;63149;48.086;-1.606;2023-03-23T16:06:39;3.60;;;1.47;;
39276;SDS011;63149;48.086;-1.606;2023-03-23T16:09:06;8.75;;;2.08;;
39276;SDS011;63149;48.086;-1.606;2023-03-23T16:11:38;8.20;;;2.20;;
39276;SDS011;63149;48.086;-1.606;2023-03-23T16:14:06;8.18;;;3.83;;
39276;SDS011;63149;48.086;-1.606;2023-03-23T16:16:35;4.60;;;2.35;;
39276;SDS011;63149;48.086;-1.606;2023-03-23T16:19:05;6.90;;;2.55;;
39276;SDS011;63149;48.086;-1.606;2023-03-23T16:21:32;7.47;;;2.10;;
39276;SDS011;63149;48.086;-1.606;2023-03-23T16:23:59;8.93;;;3.10;;
39276;SDS011;63149;48.086;-1.606;2023-03-23T16:26:26;8.20;;;1.95;;
39276;SDS011;63149;48.086;-1.606;2023-03-23T16:28:53;12.45;;;2.78;;
39276;SDS011;63149;48.086;-1.606;2023-03-23T16:31:20;5.60;;;2.00;;
39276;SDS011;63149;48.086;-1.606;2023-03-23T16:33:48;5.93;;;2.08;;
39276;SDS011;63149;48.086;-1.606;2023-03-23T16:36:15;8.77;;;3.05;;
39276;SDS011;63149;48.086;-1.606;2023-03-23T16:38:42;12.68;;;2.42;;
39276;SDS011;63149;48.086;-1.606;2023-03-23T16:41:09;6.60;;;1.92;;
39276;SDS011;63149;48.086;-1.606;2023-03-23T16:43:39;11.30;;;6.28;;
39276;SDS011;63149;48.086;-1.606;2023-03-23T16:46:06;5.72;;;2.20;;
39276;SDS011;63149;48.086;-1.606;2023-03-23T16:48:36;7.43;;;2.47;;
39276;SDS011;63149;48.086;-1.606;2023-03-23T16:51:04;10.05;;;2.58;;
39276;SDS011;63149;48.086;-1.606;2023-03-23T16:53:31;14.82;;;4.60;;
39276;SDS011;63149;48.086;-1.606;2023-03-23T16:55:58;11.77;;;2.60;;
39276;SDS011;63149;48.086;-1.606;2023-03-23T16:58:25;7.45;;;2.55;;
39276;SDS011;63149;48.086;-1.606;2023-03-23T17:00:52;9.43;;;2.78;;
39276;SDS011;63149;48.086;-1.606;2023-03-23T17:03:20;10.27;;;3.80;;
39276;SDS011;63149;48.086;-1.606;2023-03-23T17:05:47;5.93;;;2.67;;
39276;SDS011;63149;48.086;-1.606;2023-03-23T17:08:16;6.45;;;2.55;;
39276;SDS011;63149;48.086;-1.606;2023-03-23T17:10:44;4.55;;;2.80;;
39276;SDS011;63149;48.086;-1.606;2023-03-23T17:13:11;4.93;;;2.67;;
39276;SDS011;63149;48.086;-1.606;2023-03-23T17:15:39;7.63;;;2.85;;
39276;SDS011;63149;48.086;-1.606;2023-03-23T17:18:07;10.43;;;4.75;;
39276;SDS011;63149;48.086;-1.606;2023-03-23T17:20:34;8.98;;;5.82;;
39276;SDS011;63149;48.086;-1.606;2023-03-23T17:23:02;16.83;;;8.00;;
39276;SDS011;63149;48.086;-1.606;2023-03-23T17:25:31;7.20;;;3.22;;
39276;SDS011;63149;48.086;-1.606;2023-03-23T17:27:58;10.38;;;3.63;;
39276;SDS011;63149;48.086;-1.606;2023-03-23T17:30:25;8.68;;;4.63;;
39276;SDS011;63149;48.086;-1.606;2023-03-23T17:32:52;13.18;;;4.28;;
39276;SDS011;63149;48.086;-1.606;2023-03-23T17:35:20;8.07;;;3.13;;
39276;SDS011;63149;48.086;-1.606;2023-03-23T17:37:47;21.15;;;9.13;;
39276;SDS011;63149;48.086;-1.606;2023-03-23T17:40:14;28.80;;;15.13;;
39276;SDS011;63149;48.086;-1.606;2023-03-23T17:42:42;10.48;;;5.25;;
39276;SDS011;63149;48.086;-1.606;2023-03-23T17:45:09;8.07;;;2.70;;
39276;SDS011;63149;48.086;-1.606;2023-03-23T17:47:36;13.52;;;4.63;;
39276;SDS011;63149;48.086;-1.606;2023-03-23T17:50:03;45.03;;;24.48;;
39276;SDS011;63149;48.086;-1.606;2023-03-23T17:52:31;17.00;;;8.75;;
39276;SDS011;63149;48.086;-1.606;2023-03-23T17:54:58;8.20;;;3.72;;
39276;SDS011;63149;48.086;-1.606;2023-03-23T17:57:25;7.35;;;3.20;;
39276;SDS011;63149;48.086;-1.606;2023-03-23T17:59:53;8.93;;;3.90;;
39276;SDS011;63149;48.086;-1.606;2023-03-23T18:02:20;11.18;;;3.67;;
39276;SDS011;63149;48.086;-1.606;2023-03-23T18:04:47;21.05;;;8.77;;
39276;SDS011;63149;48.086;-1.606;2023-03-23T18:07:14;16.00;;;9.30;;
39276;SDS011;63149;48.086;-1.606;2023-03-23T18:09:43;6.40;;;3.20;;
39276;SDS011;63149;48.086;-1.606;2023-03-23T18:12:10;8.45;;;4.45;;
39276;SDS011;63149;48.086;-1.606;2023-03-23T18:14:37;13.43;;;6.63;;
39276;SDS011;63149;48.086;-1.606;2023-03-23T18:17:05;9.65;;;6.40;;
39276;SDS011;63149;48.086;-1.606;2023-03-23T18:19:32;10.82;;;3.72;;
39276;SDS011;63149;48.086;-1.606;2023-03-23T18:22:00;10.20;;;3.53;;
39276;SDS011;63149;48.086;-1.606;2023-03-23T18:24:27;5.70;;;3.97;;
39276;SDS011;63149;48.086;-1.606;2023-03-23T18:26:54;5.57;;;3.28;;
39276;SDS011;63149;48.086;-1.606;2023-03-23T18:29:24;7.50;;;3.38;;
39276;SDS011;63149;48.086;-1.606;2023-03-23T18:31:51;12.40;;;5.47;;
39276;SDS011;63149;48.086;-1.606;2023-03-23T18:34:19;17.38;;;10.25;;
39276;SDS011;63149;48.086;-1.606;2023-03-23T18:36:46;12.95;;;7.78;;
39276;SDS011;63149;48.086;-1.606;2023-03-23T18:39:13;12.07;;;6.82;;
39276;SDS011;63149;48.086;-1.606;2023-03-23T18:41:40;15.85;;;8.35;;
39276;SDS011;63149;48.086;-1.606;2023-03-23T18:44:07;11.77;;;5.93;;
39276;SDS011;63149;48.086;-1.606;2023-03-23T18:46:34;13.48;;;3.63;;
39276;SDS011;63149;48.086;-1.606;2023-03-23T18:49:02;11.57;;;4.93;;
39276;SDS011;63149;48.086;-1.606;2023-03-23T18:51:31;22.08;;;10.50;;
39276;SDS011;63149;48.086;-1.606;2023-03-23T18:53:58;18.30;;;7.93;;
39276;SDS011;63149;48.086;-1.606;2023-03-23T18:56:24;14.48;;;6.20;;
39276;SDS011;63149;48.086;-1.606;2023-03-23T18:58:51;9.75;;;3.60;;
39276;SDS011;63149;48.086;-1.606;2023-03-23T19:01:19;11.50;;;3.83;;
39276;SDS011;63149;48.086;-1.606;2023-03-23T19:03:46;8.52;;;3.55;;
39276;SDS011;63149;48.086;-1.606;2023-03-23T19:06:14;9.73;;;3.90;;
39276;SDS011;63149;48.086;-1.606;2023-03-23T19:08:44;10.15;;;5.05;;
39276;SDS011;63149;48.086;-1.606;2023-03-23T19:11:12;8.20;;;4.07;;
39276;SDS011;63149;48.086;-1.606;2023-03-23T19:13:40;10.95;;;3.67;;
39276;SDS011;63149;48.086;-1.606;2023-03-23T19:16:07;11.27;;;3.38;;
39276;SDS011;63149;48.086;-1.606;2023-03-23T19:18:34;9.43;;;3.40;;
39276;SDS011;63149;48.086;-1.606;2023-03-23T19:21:01;13.60;;;4.03;;
39276;SDS011;63149;48.086;-1.606;2023-03-23T19:23:28;11.45;;;3.42;;
39276;SDS011;63149;48.086;-1.606;2023-03-23T19:25:57;8.90;;;4.68;;
39276;SDS011;63149;48.086;-1.606;2023-03-23T19:28:24;7.50;;;3.28;;
39276;SDS011;63149;48.086;-1.606;2023-03-23T19:30:52;7.95;;;4.07;;
39276;SDS011;63149;48.086;-1.606;2023-03-23T19:33:21;10.57;;;4.03;;
39276;SDS011;63149;48.086;-1.606;2023-03-23T19:35:49;7.40;;;4.03;;
39276;SDS011;63149;48.086;-1.606;2023-03-23T19:38:17;8.13;;;3.65;;
39276;SDS011;63149;48.086;-1.606;2023-03-23T19:40:52;14.32;;;4.28;;
39276;SDS011;63149;48.086;-1.606;2023-03-23T19:43:22;7.65;;;3.58;;
39276;SDS011;63149;48.086;-1.606;2023-03-23T19:45:50;10.70;;;3.95;;
39276;SDS011;63149;48.086;-1.606;2023-03-23T19:48:17;12.98;;;3.45;;
39276;SDS011;63149;48.086;-1.606;2023-03-23T19:50:44;12.23;;;6.13;;
39276;SDS011;63149;48.086;-1.606;2023-03-23T19:53:15;7.95;;;3.10;;
39276;SDS011;63149;48.086;-1.606;2023-03-23T19:55:42;8.32;;;3.22;;
39276;SDS011;63149;48.086;-1.606;2023-03-23T19:58:09;7.72;;;3.22;;
39276;SDS011;63149;48.086;-1.606;2023-03-23T20:00:37;7.78;;;3.63;;
39276;SDS011;63149;48.086;-1.606;2023-03-23T20:03:05;6.97;;;3.90;;
39276;SDS011;63149;48.086;-1.606;2023-03-23T20:05:32;9.07;;;3.65;;
39276;SDS011;63149;48.086;-1.606;2023-03-23T20:07:59;9.05;;;3.63;;
39276;SDS011;63149;48.086;-1.606;2023-03-23T20:10:26;9.93;;;2.80;;
39276;SDS011;63149;48.086;-1.606;2023-03-23T20:12:53;7.30;;;3.90;;
39276;SDS011;63149;48.086;-1.606;2023-03-23T20:15:20;12.02;;;3.20;;
39276;SDS011;63149;48.086;-1.606;2023-03-23T20:17:49;9.05;;;3.30;;
39276;SDS011;63149;48.086;-1.606;2023-03-23T20:20:17;8.63;;;3.40;;
39276;SDS011;63149;48.086;-1.606;2023-03-23T20:22:44;10.18;;;3.20;;
39276;SDS011;63149;48.086;-1.606;2023-03-23T20:25:11;6.40;;;2.85;;
39276;SDS011;63149;48.086;-1.606;2023-03-23T20:27:38;11.35;;;3.30;;
39276;SDS011;63149;48.086;-1.606;2023-03-23T20:30:06;7.43;;;3.20;;
39276;SDS011;63149;48.086;-1.606;2023-03-23T20:32:34;10.77;;;4.20;;
39276;SDS011;63149;48.086;-1.606;2023-03-23T20:35:07;11.87;;;3.73;;
39276;SDS011;63149;48.086;-1.606;2023-03-23T20:37:37;12.73;;;3.28;;
39276;SDS011;63149;48.086;-1.606;2023-03-23T20:40:05;11.77;;;3.47;;
39276;SDS011;63149;48.086;-1.606;2023-03-23T20:42:34;13.27;;;3.40;;
39276;SDS011;63149;48.086;-1.606;2023-03-23T20:45:03;8.07;;;2.90;;
39276;SDS011;63149;48.086;-1.606;2023-03-23T20:47:31;12.10;;;3.53;;
39276;SDS011;63149;48.086;-1.606;2023-03-23T20:49:58;8.80;;;3.08;;
39276;SDS011;63149;48.086;-1.606;2023-03-23T20:52:27;14.23;;;3.35;;
39276;SDS011;63149;48.086;-1.606;2023-03-23T20:54:54;12.77;;;2.95;;
39276;SDS011;63149;48.086;-1.606;2023-03-23T20:57:21;13.65;;;4.03;;
39276;SDS011;63149;48.086;-1.606;2023-03-23T20:59:49;13.35;;;3.30;;
39276;SDS011;63149;48.086;-1.606;2023-03-23T21:02:17;13.77;;;3.13;;